createdAt,value
2022-12-08T00:00:10.348Z,20.50
2022-12-08T00:02:40.917Z,20.50
2022-12-08T00:05:31.951Z,20.50
2022-12-08T00:08:21.628Z,20.50
2022-12-08T00:10:51.317Z,20.50
2022-12-08T00:13:20.863Z,20.60
2022-12-08T00:15:50.510Z,20.60
2022-12-08T00:18:20.080Z,20.60
2022-12-08T00:20:56.588Z,20.60
2022-12-08T00:23:26.267Z,20.70
2022-12-08T00:25:56.121Z,20.70
2022-12-08T00:28:25.788Z,20.70
2022-12-08T00:30:55.378Z,20.80
2022-12-08T00:33:25.022Z,20.80
2022-12-08T00:35:54.611Z,20.90
2022-12-08T00:38:24.183Z,20.90
2022-12-08T00:40:53.711Z,20.90
2022-12-08T00:43:23.314Z,21.00
2022-12-08T00:45:52.925Z,21.00
2022-12-08T00:48:22.502Z,21.00
2022-12-08T00:50:52.200Z,21.00
2022-12-08T00:53:21.746Z,21.00
2022-12-08T00:55:51.321Z,21.10
2022-12-08T00:58:20.884Z,21.10
2022-12-08T01:00:50.923Z,21.20
2022-12-08T01:03:21.666Z,21.20
2022-12-08T01:05:51.711Z,21.30
2022-12-08T01:08:22.003Z,21.30
2022-12-08T01:10:52.003Z,21.40
2022-12-08T01:13:21.924Z,21.40
2022-12-08T01:15:51.792Z,21.50
2022-12-08T01:18:21.700Z,21.50
2022-12-08T01:20:51.661Z,21.60
2022-12-08T01:23:21.546Z,21.60
2022-12-08T01:25:51.340Z,21.70
2022-12-08T01:28:21.211Z,21.70
2022-12-08T01:30:51.090Z,21.80
2022-12-08T01:33:21.027Z,21.80
2022-12-08T01:35:50.992Z,21.80
2022-12-08T01:38:20.863Z,21.90
2022-12-08T01:40:51.102Z,22.00
2022-12-08T01:43:23.167Z,22.00
2022-12-08T01:45:53.514Z,22.10
2022-12-08T01:48:29.549Z,22.20
2022-12-08T01:50:59.856Z,22.20
2022-12-08T01:53:37.429Z,22.30
2022-12-08T01:56:17.578Z,22.30
2022-12-08T01:58:53.203Z,22.40
2022-12-08T02:01:23.183Z,22.50
2022-12-08T02:04:04.933Z,22.50
2022-12-08T02:06:41.850Z,22.60
2022-12-08T02:09:11.981Z,22.70
2022-12-08T02:11:41.882Z,22.70
2022-12-08T02:14:13.512Z,22.80
2022-12-08T02:17:07.959Z,22.90
2022-12-08T02:20:16.669Z,22.90
2022-12-08T02:23:25.390Z,23.00
2022-12-08T02:26:34.030Z,23.10
2022-12-08T02:29:35.033Z,23.10
2022-12-08T02:32:43.736Z,23.20
2022-12-08T02:35:29.319Z,23.30
2022-12-08T02:38:09.162Z,23.40
2022-12-08T02:41:02.505Z,23.50
2022-12-08T02:43:54.759Z,23.50
2022-12-08T02:46:30.432Z,23.60
2022-12-08T02:49:01.253Z,23.70
2022-12-08T02:51:31.161Z,23.70
2022-12-08T02:54:02.118Z,23.80
2022-12-08T02:57:02.427Z,23.90
2022-12-08T03:00:03.542Z,24.00
2022-12-08T03:03:10.102Z,24.10
2022-12-08T03:06:12.230Z,24.20
2022-12-08T03:09:12.671Z,24.30
2022-12-08T03:11:56.126Z,24.30
2022-12-08T03:14:26.896Z,24.40
2022-12-08T03:16:59.914Z,24.50
2022-12-08T03:19:40.081Z,24.60
2022-12-08T03:22:11.061Z,24.60
2022-12-08T03:24:43.796Z,24.70
2022-12-08T03:27:26.834Z,24.70
2022-12-08T03:29:58.498Z,24.80
2022-12-08T03:32:57.140Z,24.90
2022-12-08T03:35:30.433Z,24.90
2022-12-08T03:38:12.564Z,25.10
2022-12-08T03:40:43.198Z,25.10
2022-12-08T03:43:13.460Z,25.20
2022-12-08T03:45:43.389Z,25.30
2022-12-08T03:48:13.324Z,25.30
2022-12-08T03:50:43.143Z,25.40
2022-12-08T03:53:13.055Z,25.50
2022-12-08T03:55:42.992Z,25.50
2022-12-08T03:58:12.922Z,25.60
2022-12-08T04:00:42.832Z,25.70
2022-12-08T04:03:12.492Z,25.80
2022-12-08T04:05:42.041Z,25.90
2022-12-08T04:08:11.684Z,25.90
2022-12-08T04:10:41.384Z,26.00
2022-12-08T04:13:11.152Z,26.10
2022-12-08T04:15:40.802Z,26.20
2022-12-08T04:18:10.473Z,26.30
2022-12-08T04:20:47.912Z,26.30
2022-12-08T04:23:17.763Z,26.40
2022-12-08T04:25:47.412Z,26.50
2022-12-08T04:28:17.027Z,26.50
2022-12-08T04:30:46.790Z,26.70
2022-12-08T04:33:16.296Z,26.70
2022-12-08T04:35:46.283Z,26.70
2022-12-08T04:38:16.214Z,26.70
2022-12-08T04:40:46.092Z,26.80
2022-12-08T04:43:15.991Z,26.90
2022-12-08T04:45:46.006Z,26.90
2022-12-08T04:48:16.121Z,27.00
2022-12-08T04:50:47.470Z,27.10
2022-12-08T04:53:17.519Z,27.10
2022-12-08T04:55:50.308Z,27.20
2022-12-08T04:58:21.713Z,27.30
2022-12-08T05:00:51.985Z,27.30
2022-12-08T05:03:28.332Z,27.40
2022-12-08T05:06:01.200Z,27.40
2022-12-08T05:08:31.653Z,27.50
2022-12-08T05:11:07.951Z,27.50
2022-12-08T05:13:38.466Z,27.60
2022-12-08T05:16:13.691Z,27.60
2022-12-08T05:18:44.965Z,27.70
2022-12-08T05:21:14.969Z,27.80
2022-12-08T05:23:44.861Z,27.80
2022-12-08T05:26:14.802Z,27.90
2022-12-08T05:28:44.700Z,27.90
2022-12-08T05:31:19.475Z,27.90
2022-12-08T05:33:50.833Z,28.00
2022-12-08T05:36:21.638Z,28.00
2022-12-08T05:38:51.664Z,28.00
2022-12-08T05:41:23.003Z,27.90
2022-12-08T05:43:53.038Z,27.90
2022-12-08T05:46:23.013Z,27.90
2022-12-08T05:48:52.928Z,28.00
2022-12-08T05:51:25.032Z,28.00
2022-12-08T05:53:55.757Z,28.10
2022-12-08T05:56:26.291Z,28.10
2022-12-08T05:58:56.193Z,28.20
2022-12-08T06:01:29.354Z,28.20
2022-12-08T06:04:01.031Z,28.30
2022-12-08T06:06:32.294Z,28.30
2022-12-08T06:09:01.845Z,28.40
2022-12-08T06:11:34.354Z,28.50
2022-12-08T06:14:05.021Z,28.50
2022-12-08T06:16:34.684Z,28.50
2022-12-08T06:19:04.432Z,28.60
2022-12-08T06:21:33.991Z,28.60
2022-12-08T06:24:03.759Z,28.60
2022-12-08T06:26:33.316Z,28.60
2022-12-08T06:29:02.851Z,28.70
2022-12-08T06:31:32.596Z,28.80
2022-12-08T06:34:02.307Z,28.80
2022-12-08T06:36:32.202Z,28.90
2022-12-08T06:39:01.822Z,28.90
2022-12-08T06:41:31.447Z,29.00
2022-12-08T06:44:01.346Z,29.10
2022-12-08T06:46:30.989Z,29.20
2022-12-08T06:49:01.305Z,29.30
2022-12-08T06:51:30.888Z,29.40
2022-12-08T06:54:00.442Z,29.40
2022-12-08T06:56:31.778Z,29.50
2022-12-08T06:59:01.379Z,29.50
2022-12-08T07:01:31.424Z,29.50
2022-12-08T07:04:01.660Z,29.50
2022-12-08T07:06:31.538Z,29.50
2022-12-08T07:09:01.838Z,29.40
2022-12-08T07:11:31.827Z,29.40
2022-12-08T07:14:01.481Z,29.40
2022-12-08T07:16:31.347Z,29.30
2022-12-08T07:19:02.094Z,29.20
2022-12-08T07:21:31.662Z,29.10
2022-12-08T07:24:01.189Z,29.00
2022-12-08T07:26:31.152Z,29.00
2022-12-08T07:29:01.759Z,29.00
2022-12-08T07:31:31.356Z,29.10
2022-12-08T07:34:01.112Z,29.10
2022-12-08T07:36:30.784Z,29.20
2022-12-08T07:39:00.668Z,29.30
2022-12-08T07:41:30.213Z,29.40
2022-12-08T07:43:59.972Z,29.40
2022-12-08T07:46:29.770Z,29.50
2022-12-08T07:48:59.346Z,29.60
2022-12-08T07:51:28.939Z,29.60
2022-12-08T07:53:58.640Z,29.60
2022-12-08T07:56:28.279Z,29.60
2022-12-08T07:58:57.834Z,29.60
2022-12-08T08:01:30.980Z,29.60
2022-12-08T08:04:06.819Z,29.60
2022-12-08T08:06:39.533Z,29.50
2022-12-08T08:09:10.522Z,29.50
2022-12-08T08:11:40.359Z,29.50
2022-12-08T08:14:09.944Z,29.50
2022-12-08T08:16:39.918Z,29.50
2022-12-08T08:19:09.564Z,29.50
2022-12-08T08:21:46.547Z,29.50
2022-12-08T08:24:16.282Z,29.50
2022-12-08T08:26:45.805Z,29.60
2022-12-08T08:29:15.317Z,29.60
2022-12-08T08:31:44.954Z,29.60
2022-12-08T08:34:14.640Z,29.70
2022-12-08T08:36:44.491Z,29.70
2022-12-08T08:39:14.402Z,29.70
2022-12-08T08:41:44.352Z,29.70
2022-12-08T08:44:16.838Z,29.70
2022-12-08T08:46:47.259Z,29.70
2022-12-08T08:49:17.265Z,29.70
2022-12-08T08:51:48.013Z,29.80
2022-12-08T08:54:17.964Z,29.80
2022-12-08T08:56:47.784Z,29.80
2022-12-08T08:59:17.802Z,29.80
2022-12-08T09:01:47.974Z,29.80
2022-12-08T09:04:18.052Z,29.80
2022-12-08T09:06:48.122Z,29.80
2022-12-08T09:09:19.460Z,29.80
2022-12-08T09:11:49.423Z,29.80
2022-12-08T09:14:19.353Z,29.80
2022-12-08T09:16:49.557Z,29.80
2022-12-08T09:19:19.557Z,29.80
2022-12-08T09:21:49.554Z,29.80
2022-12-08T09:24:19.608Z,29.70
2022-12-08T09:26:50.105Z,29.70
2022-12-08T09:29:20.038Z,29.60
2022-12-08T09:31:50.110Z,29.60
2022-12-08T09:34:20.175Z,29.60
2022-12-08T09:36:50.337Z,29.60
2022-12-08T09:39:20.244Z,29.60
2022-12-08T09:42:13.365Z,29.60
2022-12-08T09:45:04.482Z,29.60
2022-12-08T09:47:41.224Z,29.60
2022-12-08T09:50:40.837Z,29.50
2022-12-08T09:53:18.656Z,29.50
2022-12-08T09:55:51.798Z,29.50
2022-12-08T09:58:46.789Z,29.40
2022-12-08T10:01:18.299Z,29.40
2022-12-08T10:03:48.267Z,29.40
2022-12-08T10:06:35.286Z,29.40
2022-12-08T10:09:40.908Z,29.30
2022-12-08T10:12:39.496Z,29.30
2022-12-08T10:15:48.260Z,29.20
2022-12-08T10:18:22.435Z,29.10
2022-12-08T10:20:53.644Z,29.00
2022-12-08T10:23:37.033Z,29.00
2022-12-08T10:26:13.859Z,28.90
2022-12-08T10:28:45.476Z,28.80
2022-12-08T10:31:21.182Z,28.80
2022-12-08T10:34:03.429Z,28.70
2022-12-08T10:36:57.817Z,28.60
2022-12-08T10:39:47.611Z,28.50
2022-12-08T10:42:23.626Z,28.50
2022-12-08T10:45:19.828Z,28.40
2022-12-08T10:48:07.782Z,28.30
2022-12-08T10:50:44.146Z,28.20
2022-12-08T10:53:17.822Z,28.10
2022-12-08T10:55:52.032Z,28.00
2022-12-08T10:58:45.588Z,28.00
2022-12-08T11:01:28.482Z,27.90
2022-12-08T11:04:03.625Z,27.80
2022-12-08T11:06:42.265Z,27.70
2022-12-08T11:09:32.985Z,27.60
2022-12-08T11:12:15.089Z,27.50
2022-12-08T11:14:57.862Z,27.40
2022-12-08T11:17:31.340Z,27.30
2022-12-08T11:20:04.843Z,27.20
2022-12-08T11:22:48.895Z,27.10
2022-12-08T11:25:24.727Z,27.00
2022-12-08T11:27:59.254Z,27.00
2022-12-08T11:30:38.856Z,26.90
2022-12-08T11:33:23.933Z,26.90
2022-12-08T11:36:14.860Z,26.80
2022-12-08T11:38:48.099Z,26.70
2022-12-08T11:41:20.776Z,26.70
2022-12-08T11:44:25.974Z,26.60
2022-12-08T11:47:03.256Z,26.50
2022-12-08T11:49:41.401Z,26.40
2022-12-08T11:52:43.802Z,26.40
2022-12-08T11:55:52.531Z,26.30
2022-12-08T11:58:44.941Z,26.20
2022-12-08T12:01:27.921Z,26.20
2022-12-08T12:04:31.581Z,26.10
2022-12-08T12:07:33.792Z,26.10
2022-12-08T12:10:29.059Z,26.00
2022-12-08T12:13:20.797Z,25.90
2022-12-08T12:16:29.584Z,25.90
2022-12-08T12:19:07.815Z,25.80
2022-12-08T12:21:48.893Z,25.80
2022-12-08T12:24:41.034Z,25.80
2022-12-08T12:27:31.968Z,25.70
2022-12-08T12:30:08.811Z,25.70
2022-12-08T12:32:58.521Z,25.60
2022-12-08T12:35:43.345Z,25.60
2022-12-08T12:38:55.510Z,25.50
2022-12-08T12:41:30.116Z,25.50
2022-12-08T12:44:38.213Z,25.50
2022-12-08T12:47:13.591Z,25.40
2022-12-08T12:50:08.874Z,25.40
2022-12-08T12:52:43.324Z,25.30
2022-12-08T12:55:24.532Z,25.20
2022-12-08T12:57:58.651Z,25.20
2022-12-08T13:00:30.252Z,25.10
2022-12-08T13:03:03.061Z,25.10
2022-12-08T13:05:37.520Z,25.10
2022-12-08T13:08:28.556Z,25.00
2022-12-08T13:11:08.810Z,25.00
2022-12-08T13:13:57.589Z,24.90
2022-12-08T13:16:29.639Z,24.90
2022-12-08T13:19:03.928Z,24.80
2022-12-08T13:24:29.084Z,24.80
